Time;durP1;ratioP1;P1;durP2;ratioP2;P2;SDS_P1;SDS_P2;PMS_P1;PMS_P2;Temp;Humidity;BMP_temperature;BMP_pressure;BME280_temperature;BME280_humidity;BME280_pressure;Samples;Min_cycle;Max_cycle;Signal;HPM_P1;HPM_P2
2023/06/29 00:01:30;;;;;;;14.32;13.05;;;;;;;;;;5090248;28;20055;-76
2023/06/29 00:03:56;;;;;;;13.02;11.93;;;;;;;;;;5092436;28;20032;-76
2023/06/29 00:06:21;;;;;;;14.13;11.95;;;;;;;;;;5092942;27;20469;-75
2023/06/29 00:08:48;;;;;;;14.32;13.20;;;;;;;;;;5091954;28;20024;-77
2023/06/29 00:11:13;;;;;;;13.93;12.63;;;;;;;;;;5091704;28;20020;-77
2023/06/29 00:13:39;;;;;;;14.15;12.85;;;;;;;;;;5092941;27;20168;-78
2023/06/29 00:16:04;;;;;;;12.38;11.38;;;;;;;;;;5090563;28;20335;-75
2023/06/29 00:18:30;;;;;;;12.55;11.40;;;;;;;;;;5092241;28;20028;-75
2023/06/29 00:20:56;;;;;;;13.73;12.60;;;;;;;;;;5093338;28;20506;-75
2023/06/29 00:23:21;;;;;;;15.77;13.55;;;;;;;;;;5092113;28;20024;-78
2023/06/29 00:25:47;;;;;;;14.00;12.90;;;;;;;;;;5092959;28;20458;-77
2023/06/29 00:28:15;;;;;;;16.40;13.00;;;;;;;;;;5092246;28;20468;-76
2023/06/29 00:30:40;;;;;;;15.07;13.63;;;;;;;;;;5093001;28;20082;-75
2023/06/29 00:33:06;;;;;;;15.35;14.05;;;;;;;;;;5092065;28;20430;-76
2023/06/29 00:35:31;;;;;;;14.63;13.32;;;;;;;;;;5093412;28;20031;-76
2023/06/29 00:37:57;;;;;;;16.35;14.20;;;;;;;;;;5092612;28;20500;-75
2023/06/29 00:40:22;;;;;;;16.10;14.60;;;;;;;;;;5092342;28;20035;-76
2023/06/29 00:42:48;;;;;;;14.95;13.52;;;;;;;;;;5092246;28;20503;-77
2023/06/29 00:45:14;;;;;;;15.15;13.85;;;;;;;;;;5092556;28;20019;-75
2023/06/29 00:47:39;;;;;;;16.92;15.20;;;;;;;;;;5093165;27;20450;-76
2023/06/29 00:50:05;;;;;;;16.05;14.68;;;;;;;;;;5092755;28;20019;-77
2023/06/29 00:52:30;;;;;;;16.45;14.90;;;;;;;;;;5092081;27;20023;-77
2023/06/29 00:54:56;;;;;;;16.13;14.40;;;;;;;;;;5092588;28;20149;-77
2023/06/29 00:57:22;;;;;;;16.23;14.82;;;;;;;;;;5093444;28;20031;-77
2023/06/29 00:59:47;;;;;;;17.60;15.60;;;;;;;;;;5094513;28;20123;-76
2023/06/29 01:02:14;;;;;;;16.42;14.93;;;;;;;;;;5103162;28;20019;-76
2023/06/29 01:04:40;;;;;;;16.30;14.93;;;;;;;;;;5101184;27;20133;-77
2023/06/29 01:07:18;;;;;;;15.45;14.13;;;;;;;;;;5100634;28;20054;-77
2023/06/29 01:09:44;;;;;;;16.40;14.63;;;;;;;;;;5092758;28;20027;-77
2023/06/29 01:12:11;;;;;;;15.98;14.38;;;;;;;;;;5099814;28;20434;-76
2023/06/29 01:14:39;;;;;;;15.63;14.00;;;;;;;;;;5092156;28;20449;-76
2023/06/29 01:17:05;;;;;;;17.73;14.63;;;;;;;;;;5100885;28;20042;-77
2023/06/29 01:19:32;;;;;;;16.40;14.75;;;;;;;;;;5101669;28;20035;-77
2023/06/29 01:22:00;;;;;;;16.40;14.80;;;;;;;;;;5102280;28;20027;-76
2023/06/29 01:24:26;;;;;;;15.07;13.68;;;;;;;;;;5102210;27;20080;-77
2023/06/29 01:26:52;;;;;;;16.17;14.68;;;;;;;;;;5100542;28;20024;-76
2023/06/29 01:29:24;;;;;;;15.38;13.63;;;;;;;;;;5089857;28;20034;-76
2023/06/29 01:31:59;;;;;;;15.73;14.32;;;;;;;;;;5092661;28;20016;-78
2023/06/29 01:34:26;;;;;;;13.15;12.07;;;;;;;;;;5092435;28;20484;-78
2023/06/29 01:36:52;;;;;;;15.75;14.13;;;;;;;;;;5098950;28;20102;-77
2023/06/29 01:39:20;;;;;;;14.10;12.90;;;;;;;;;;5092000;28;20119;-78
2023/06/29 01:41:46;;;;;;;16.23;14.63;;;;;;;;;;5093569;28;20020;-79
2023/06/29 01:44:14;;;;;;;16.63;14.93;;;;;;;;;;5089909;28;20096;-79
2023/06/29 01:46:40;;;;;;;16.20;14.80;;;;;;;;;;5090537;28;20496;-77
2023/06/29 01:49:05;;;;;;;16.15;14.68;;;;;;;;;;5096462;27;20042;-75
2023/06/29 01:51:30;;;;;;;16.00;14.55;;;;;;;;;;5093202;28;20055;-77
2023/06/29 01:53:56;;;;;;;17.23;15.68;;;;;;;;;;5101006;28;20426;-77
2023/06/29 01:56:22;;;;;;;15.52;14.02;;;;;;;;;;5099495;28;20102;-77
2023/06/29 01:58:47;;;;;;;15.25;13.85;;;;;;;;;;5094027;28;20031;-76
2023/06/29 02:01:12;;;;;;;16.65;14.88;;;;;;;;;;5097564;28;20035;-77
2023/06/29 02:03:38;;;;;;;15.30;13.77;;;;;;;;;;5097906;28;20019;-76
2023/06/29 02:06:03;;;;;;;15.95;14.55;;;;;;;;;;5095292;28;20055;-77
2023/06/29 02:08:28;;;;;;;17.15;14.85;;;;;;;;;;5099387;28;20481;-76
2023/06/29 02:10:54;;;;;;;15.32;13.82;;;;;;;;;;5099065;28;20039;-76
2023/06/29 02:13:19;;;;;;;15.73;14.20;;;;;;;;;;5089449;28;20024;-77
2023/06/29 02:15:44;;;;;;;15.93;14.52;;;;;;;;;;5091338;28;20047;-76
2023/06/29 02:18:10;;;;;;;15.95;14.55;;;;;;;;;;5100223;28;20027;-76
2023/06/29 02:20:35;;;;;;;15.70;14.23;;;;;;;;;;5101431;28;20312;-75
2023/06/29 02:23:00;;;;;;;15.43;14.00;;;;;;;;;;5099095;28;20378;-78
2023/06/29 02:25:26;;;;;;;17.77;15.98;;;;;;;;;;5101887;27;20028;-77
2023/06/29 02:27:51;;;;;;;15.85;14.45;;;;;;;;;;5094582;27;20072;-78
2023/06/29 02:30:16;;;;;;;16.35;14.85;;;;;;;;;;5089847;28;20030;-77
2023/06/29 02:32:42;;;;;;;15.55;14.07;;;;;;;;;;5100773;28;20095;-77
2023/06/29 02:35:07;;;;;;;16.45;14.75;;;;;;;;;;5100919;28;20084;-75
2023/06/29 02:37:33;;;;;;;15.40;13.77;;;;;;;;;;5099275;28;20028;-75
2023/06/29 02:39:58;;;;;;;14.82;12.60;;;;;;;;;;5099300;28;20034;-78
2023/06/29 02:42:23;;;;;;;14.45;13.05;;;;;;;;;;5099787;28;20123;-76
2023/06/29 02:44:49;;;;;;;14.57;13.13;;;;;;;;;;5088542;28;20032;-75
2023/06/29 02:47:14;;;;;;;15.82;14.32;;;;;;;;;;5099031;28;20028;-76
2023/06/29 02:49:39;;;;;;;15.25;13.85;;;;;;;;;;5089029;28;20461;-76
2023/06/29 02:52:05;;;;;;;14.75;13.38;;;;;;;;;;5098374;28;20020;-75
2023/06/29 02:54:30;;;;;;;15.40;14.00;;;;;;;;;;5098284;28;20015;-76
2023/06/29 02:56:55;;;;;;;14.35;13.10;;;;;;;;;;5097475;28;20028;-78
2023/06/29 02:59:21;;;;;;;15.57;14.15;;;;;;;;;;5087906;28;20067;-76
2023/06/29 03:01:46;;;;;;;15.20;13.90;;;;;;;;;;5099406;28;20073;-77
2023/06/29 03:04:11;;;;;;;15.23;13.75;;;;;;;;;;5097830;28;20031;-78
2023/06/29 03:06:37;;;;;;;15.90;14.25;;;;;;;;;;5096946;28;20483;-77
2023/06/29 03:09:04;;;;;;;14.25;12.85;;;;;;;;;;5094465;28;20131;-76
2023/06/29 03:11:29;;;;;;;14.50;13.13;;;;;;;;;;5094255;28;20064;-75
2023/06/29 03:13:57;;;;;;;15.48;14.15;;;;;;;;;;5092764;28;20104;-77
2023/06/29 03:16:22;;;;;;;14.38;13.18;;;;;;;;;;5096310;28;20054;-76
2023/06/29 03:18:48;;;;;;;14.15;12.85;;;;;;;;;;5100192;28;20422;-75
2023/06/29 03:21:16;;;;;;;15.48;14.05;;;;;;;;;;5094659;28;20314;-76
2023/06/29 03:23:41;;;;;;;14.57;13.30;;;;;;;;;;5098334;28;20023;-76
2023/06/29 03:26:06;;;;;;;14.77;13.48;;;;;;;;;;5098946;28;20059;-76
2023/06/29 03:28:32;;;;;;;15.10;13.32;;;;;;;;;;5094186;28;20032;-76
2023/06/29 03:30:57;;;;;;;14.05;12.75;;;;;;;;;;5087788;28;20024;-76
2023/06/29 03:33:22;;;;;;;15.23;13.70;;;;;;;;;;5097449;28;20027;-76
2023/06/29 03:35:48;;;;;;;14.65;13.27;;;;;;;;;;5099261;28;20088;-76
2023/06/29 03:38:13;;;;;;;13.75;12.45;;;;;;;;;;5096888;28;20023;-78
2023/06/29 03:40:39;;;;;;;13.48;12.13;;;;;;;;;;5090904;28;20020;-80
2023/06/29 03:43:05;;;;;;;14.93;13.63;;;;;;;;;;5095356;28;20024;-76
2023/06/29 03:45:31;;;;;;;14.50;13.02;;;;;;;;;;5089134;28;20477;-75
2023/06/29 03:47:56;;;;;;;13.88;12.57;;;;;;;;;;5094642;28;20515;-76
2023/06/29 03:50:22;;;;;;;15.25;13.48;;;;;;;;;;5099662;28;20027;-76
2023/06/29 03:52:47;;;;;;;16.02;14.43;;;;;;;;;;5097477;28;20035;-78
2023/06/29 03:55:12;;;;;;;14.52;13.32;;;;;;;;;;5097212;28;20117;-75
2023/06/29 03:57:38;;;;;;;13.73;12.52;;;;;;;;;;5098448;28;20356;-75
2023/06/29 04:00:03;;;;;;;12.90;11.73;;;;;;;;;;5093152;28;20019;-78
2023/06/29 04:02:29;;;;;;;15.20;13.63;;;;;;;;;;5099149;28;20111;-77
2023/06/29 04:04:54;;;;;;;13.70;12.40;;;;;;;;;;5086689;28;20040;-79
2023/06/29 04:07:19;;;;;;;14.00;12.75;;;;;;;;;;5084716;28;20058;-78
2023/06/29 04:09:45;;;;;;;15.00;13.50;;;;;;;;;;5084888;28;20030;-78
2023/06/29 04:12:10;;;;;;;14.00;12.70;;;;;;;;;;5086275;27;20036;-78
2023/06/29 04:14:35;;;;;;;15.95;14.35;;;;;;;;;;5088437;28;20019;-77
2023/06/29 04:17:01;;;;;;;15.30;13.90;;;;;;;;;;5088507;28;20034;-79
2023/06/29 04:19:26;;;;;;;14.43;13.23;;;;;;;;;;5102895;28;20035;-75
2023/06/29 04:21:51;;;;;;;14.75;13.25;;;;;;;;;;5102112;28;20390;-77
2023/06/29 04:24:17;;;;;;;16.58;14.98;;;;;;;;;;5100577;28;20047;-77
2023/06/29 04:26:42;;;;;;;15.73;14.40;;;;;;;;;;5103381;28;20507;-76
2023/06/29 04:29:08;;;;;;;15.80;14.52;;;;;;;;;;5094258;28;20113;-76
2023/06/29 04:31:33;;;;;;;16.73;15.23;;;;;;;;;;5099248;28;20488;-76
2023/06/29 04:33:59;;;;;;;17.05;15.27;;;;;;;;;;5102451;28;20034;-75
2023/06/29 04:36:25;;;;;;;16.88;15.20;;;;;;;;;;5094760;28;20031;-78
2023/06/29 04:38:50;;;;;;;17.02;15.52;;;;;;;;;;5098935;28;20111;-76
2023/06/29 04:41:16;;;;;;;19.67;17.23;;;;;;;;;;5101316;28;20775;-77
2023/06/29 04:43:41;;;;;;;21.35;19.33;;;;;;;;;;5096833;27;20020;-77
2023/06/29 04:46:07;;;;;;;18.20;16.27;;;;;;;;;;5088698;28;20366;-74
2023/06/29 04:48:38;;;;;;;17.98;16.27;;;;;;;;;;5087528;28;20766;-76
2023/06/29 04:51:06;;;;;;;19.23;17.42;;;;;;;;;;5089991;28;20110;-76
2023/06/29 04:53:35;;;;;;;19.85;17.95;;;;;;;;;;5089553;28;20083;-75
2023/06/29 04:56:02;;;;;;;19.80;17.83;;;;;;;;;;5089748;28;20023;-74
2023/06/29 04:58:27;;;;;;;21.40;19.20;;;;;;;;;;5092857;28;20465;-75
2023/06/29 05:00:54;;;;;;;21.50;19.33;;;;;;;;;;5103796;28;20016;-76
2023/06/29 05:03:19;;;;;;;21.10;19.00;;;;;;;;;;5102783;28;20444;-75
2023/06/29 05:05:45;;;;;;;24.38;19.85;;;;;;;;;;5101182;28;20107;-76
2023/06/29 05:08:10;;;;;;;22.20;20.00;;;;;;;;;;5103168;28;20028;-75
2023/06/29 05:10:36;;;;;;;22.13;19.85;;;;;;;;;;5099689;28;20093;-75
2023/06/29 05:13:01;;;;;;;23.77;21.38;;;;;;;;;;5101677;28;20335;-75
2023/06/29 05:15:26;;;;;;;27.08;22.10;;;;;;;;;;5102542;28;20032;-74
2023/06/29 05:17:52;;;;;;;22.33;20.13;;;;;;;;;;5100650;28;20034;-75
2023/06/29 05:20:18;;;;;;;23.20;21.00;;;;;;;;;;5099326;28;23058;-74
2023/06/29 05:22:43;;;;;;;23.40;21.10;;;;;;;;;;5092450;28;20027;-76
2023/06/29 05:25:09;;;;;;;24.05;21.38;;;;;;;;;;5100136;28;20062;-76
2023/06/29 05:27:34;;;;;;;21.00;18.88;;;;;;;;;;5101155;28;20032;-76
2023/06/29 05:29:59;;;;;;;23.35;20.98;;;;;;;;;;5101641;28;20016;-76
2023/06/29 05:32:26;;;;;;;23.08;20.88;;;;;;;;;;5100824;28;20405;-76
2023/06/29 05:34:51;;;;;;;20.75;18.75;;;;;;;;;;5090290;28;20047;-75
2023/06/29 05:37:16;;;;;;;23.02;20.63;;;;;;;;;;5101019;28;20469;-75
2023/06/29 05:39:42;;;;;;;23.67;21.15;;;;;;;;;;5101116;28;20451;-76
2023/06/29 05:42:07;;;;;;;23.13;20.77;;;;;;;;;;5101495;28;20027;-77
2023/06/29 05:44:32;;;;;;;23.73;21.52;;;;;;;;;;5100029;28;20034;-76
2023/06/29 05:46:58;;;;;;;23.67;21.17;;;;;;;;;;5100853;28;20039;-76
2023/06/29 05:49:24;;;;;;;23.98;21.58;;;;;;;;;;5100949;28;20030;-77
2023/06/29 05:51:50;;;;;;;24.00;21.65;;;;;;;;;;5100948;28;20065;-77
2023/06/29 05:54:16;;;;;;;23.88;21.67;;;;;;;;;;5100135;28;20402;-76
2023/06/29 05:56:41;;;;;;;23.70;21.40;;;;;;;;;;5101491;28;20130;-77
2023/06/29 05:59:06;;;;;;;22.83;20.63;;;;;;;;;;5098293;27;20028;-78
2023/06/29 06:01:32;;;;;;;23.40;21.10;;;;;;;;;;5100632;28;20051;-79
2023/06/29 06:03:57;;;;;;;22.58;20.30;;;;;;;;;;5100484;28;20023;-76
2023/06/29 06:06:23;;;;;;;21.95;19.75;;;;;;;;;;5099533;28;20045;-76
2023/06/29 06:08:48;;;;;;;20.70;18.73;;;;;;;;;;5099449;28;20369;-75
2023/06/29 06:11:13;;;;;;;22.42;20.20;;;;;;;;;;5100417;28;20071;-75
2023/06/29 06:13:39;;;;;;;22.52;20.20;;;;;;;;;;5099497;28;20038;-75
2023/06/29 06:16:04;;;;;;;20.58;18.40;;;;;;;;;;5100513;27;20042;-75
2023/06/29 06:18:30;;;;;;;22.02;20.02;;;;;;;;;;5098967;28;20458;-75
2023/06/29 06:20:55;;;;;;;21.25;19.15;;;;;;;;;;5098019;28;20087;-76
2023/06/29 06:23:21;;;;;;;20.90;18.88;;;;;;;;;;5097881;28;20031;-76
2023/06/29 06:25:46;;;;;;;22.02;19.83;;;;;;;;;;5097950;28;20047;-77
2023/06/29 06:28:11;;;;;;;21.13;19.10;;;;;;;;;;5099642;28;20023;-74
2023/06/29 06:30:37;;;;;;;22.60;20.45;;;;;;;;;;5099787;27;20089;-76
2023/06/29 06:33:02;;;;;;;22.25;20.15;;;;;;;;;;5098747;28;20026;-74
2023/06/29 06:35:28;;;;;;;19.90;18.08;;;;;;;;;;5100288;28;20401;-74
2023/06/29 06:37:54;;;;;;;18.75;16.80;;;;;;;;;;5100597;28;20443;-75
2023/06/29 06:40:19;;;;;;;17.92;16.20;;;;;;;;;;5100068;28;20084;-74
2023/06/29 06:42:45;;;;;;;17.15;15.55;;;;;;;;;;5100648;28;20347;-75
2023/06/29 06:45:10;;;;;;;18.08;16.25;;;;;;;;;;5099548;28;20031;-74
2023/06/29 06:47:36;;;;;;;18.88;17.13;;;;;;;;;;5099767;28;21066;-75
2023/06/29 06:50:02;;;;;;;15.85;14.45;;;;;;;;;;5099020;28;20035;-76
2023/06/29 06:52:27;;;;;;;17.63;15.93;;;;;;;;;;5099104;28;20023;-75
2023/06/29 06:54:53;;;;;;;17.27;15.50;;;;;;;;;;5098660;28;20024;-75
2023/06/29 06:57:19;;;;;;;17.83;16.15;;;;;;;;;;5098700;28;20432;-74
2023/06/29 06:59:44;;;;;;;16.33;14.82;;;;;;;;;;5098553;28;20030;-77
2023/06/29 07:02:10;;;;;;;17.17;15.60;;;;;;;;;;5097670;28;20023;-75
2023/06/29 07:04:35;;;;;;;17.00;15.27;;;;;;;;;;5098778;28;20361;-77
2023/06/29 07:07:00;;;;;;;16.92;15.32;;;;;;;;;;5098350;28;20108;-75
2023/06/29 07:09:26;;;;;;;17.60;15.77;;;;;;;;;;5099068;28;20499;-76
2023/06/29 07:11:51;;;;;;;17.92;16.33;;;;;;;;;;5098515;28;20032;-75
2023/06/29 07:14:17;;;;;;;17.90;16.15;;;;;;;;;;5098060;28;20354;-75
2023/06/29 07:16:42;;;;;;;16.10;14.73;;;;;;;;;;5096469;28;20389;-75
2023/06/29 07:19:08;;;;;;;15.80;14.45;;;;;;;;;;5100170;28;20051;-74
2023/06/29 07:21:34;;;;;;;14.63;13.32;;;;;;;;;;5099667;28;20030;-74
2023/06/29 07:24:00;;;;;;;16.75;15.25;;;;;;;;;;5099546;28;20042;-77
2023/06/29 07:26:25;;;;;;;17.10;15.60;;;;;;;;;;5098168;28;20070;-76
2023/06/29 07:28:51;;;;;;;15.40;13.98;;;;;;;;;;5099857;28;20090;-76
2023/06/29 07:31:16;;;;;;;16.52;15.10;;;;;;;;;;5097717;28;20020;-75
2023/06/29 07:33:42;;;;;;;17.42;15.73;;;;;;;;;;5101563;28;20027;-75
2023/06/29 07:36:07;;;;;;;15.88;14.48;;;;;;;;;;5102602;27;20042;-75
2023/06/29 07:38:33;;;;;;;17.17;15.40;;;;;;;;;;5104111;28;20034;-74
2023/06/29 07:40:58;;;;;;;16.58;14.98;;;;;;;;;;5103483;28;20026;-77
2023/06/29 07:43:23;;;;;;;14.07;12.80;;;;;;;;;;5097916;27;20108;-75
2023/06/29 07:45:49;;;;;;;14.95;13.57;;;;;;;;;;5097040;27;20031;-76
2023/06/29 07:48:14;;;;;;;13.73;12.45;;;;;;;;;;5101888;28;20093;-77
2023/06/29 07:50:40;;;;;;;14.45;13.05;;;;;;;;;;5102492;28;20020;-75
2023/06/29 07:53:05;;;;;;;13.95;12.75;;;;;;;;;;5101676;28;20666;-74
2023/06/29 07:55:30;;;;;;;14.80;13.50;;;;;;;;;;5102242;28;20031;-75
2023/06/29 07:57:56;;;;;;;14.45;13.25;;;;;;;;;;5102127;28;20043;-74
2023/06/29 08:00:22;;;;;;;14.68;13.30;;;;;;;;;;5104143;28;20125;-76
2023/06/29 08:02:49;;;;;;;14.18;12.95;;;;;;;;;;5101930;28;20027;-76
2023/06/29 08:05:14;;;;;;;13.90;12.80;;;;;;;;;;5104253;28;20055;-77
2023/06/29 08:07:41;;;;;;;15.63;14.13;;;;;;;;;;5093065;28;20083;-75
2023/06/29 08:10:06;;;;;;;14.65;13.45;;;;;;;;;;5092204;28;20354;-76
2023/06/29 08:12:32;;;;;;;14.73;13.20;;;;;;;;;;5097644;27;20042;-75
2023/06/29 08:14:57;;;;;;;15.90;14.50;;;;;;;;;;5101892;27;20066;-76
2023/06/29 08:17:22;;;;;;;14.90;13.50;;;;;;;;;;5103066;28;20032;-75
2023/06/29 08:19:48;;;;;;;13.95;12.77;;;;;;;;;;5101830;28;20426;-76
2023/06/29 08:22:13;;;;;;;14.82;13.40;;;;;;;;;;5101142;28;20032;-77
2023/06/29 08:24:38;;;;;;;14.52;13.35;;;;;;;;;;5101926;28;20030;-76
2023/06/29 08:27:04;;;;;;;12.77;11.55;;;;;;;;;;5102570;27;20081;-76
2023/06/29 08:29:29;;;;;;;13.30;12.15;;;;;;;;;;5095778;28;20837;-77
2023/06/29 08:31:54;;;;;;;11.07;10.27;;;;;;;;;;5096476;28;20110;-75
2023/06/29 08:34:20;;;;;;;11.43;10.52;;;;;;;;;;5100584;28;20019;-75
2023/06/29 08:36:45;;;;;;;12.43;11.30;;;;;;;;;;5101474;28;20028;-75
2023/06/29 08:39:10;;;;;;;11.60;10.60;;;;;;;;;;5102633;27;20027;-74
2023/06/29 08:41:36;;;;;;;11.10;10.10;;;;;;;;;;5102434;27;20042;-75
2023/06/29 08:44:04;;;;;;;12.15;11.15;;;;;;;;;;5100871;28;20115;-76
2023/06/29 08:46:29;;;;;;;10.95;10.15;;;;;;;;;;5099925;28;20023;-75
2023/06/29 08:48:55;;;;;;;10.18;9.38;;;;;;;;;;5100526;28;20039;-77
2023/06/29 08:51:21;;;;;;;10.18;9.18;;;;;;;;;;5102543;28;20044;-76
2023/06/29 08:53:47;;;;;;;10.05;9.05;;;;;;;;;;5100739;27;20103;-77
2023/06/29 08:56:13;;;;;;;10.40;9.40;;;;;;;;;;5100699;28;20082;-75
2023/06/29 08:58:39;;;;;;;10.23;8.77;;;;;;;;;;5102660;28;20043;-75
2023/06/29 09:01:05;;;;;;;9.40;8.57;;;;;;;;;;5100513;27;20059;-75
2023/06/29 09:03:31;;;;;;;9.50;8.80;;;;;;;;;;5100650;28;20067;-75
2023/06/29 09:05:57;;;;;;;9.68;8.90;;;;;;;;;;5094980;28;20083;-75
2023/06/29 09:08:23;;;;;;;9.95;8.95;;;;;;;;;;5096366;28;20051;-75
2023/06/29 09:10:49;;;;;;;8.63;7.65;;;;;;;;;;5101846;27;20080;-76
2023/06/29 09:13:14;;;;;;;9.25;8.45;;;;;;;;;;5101957;28;20019;-74
2023/06/29 09:15:40;;;;;;;8.52;7.75;;;;;;;;;;5098915;28;20449;-75
2023/06/29 09:18:06;;;;;;;9.20;8.48;;;;;;;;;;5097437;28;20036;-73
2023/06/29 09:20:35;;;;;;;9.65;7.65;;;;;;;;;;5101214;28;20103;-75
2023/06/29 09:23:01;;;;;;;7.63;7.03;;;;;;;;;;5101365;28;20015;-76
2023/06/29 09:25:26;;;;;;;11.15;7.70;;;;;;;;;;5100016;28;20034;-78
2023/06/29 09:28:00;;;;;;;8.52;7.90;;;;;;;;;;5102497;28;20020;-75
2023/06/29 09:30:26;;;;;;;8.57;7.78;;;;;;;;;;5100364;28;20071;-75
2023/06/29 09:32:52;;;;;;;8.20;7.60;;;;;;;;;;5098960;28;20062;-76
2023/06/29 09:35:22;;;;;;;8.13;7.53;;;;;;;;;;5100821;28;20037;-75
2023/06/29 09:37:48;;;;;;;9.43;8.55;;;;;;;;;;5102494;27;20031;-74
2023/06/29 09:40:14;;;;;;;10.18;7.53;;;;;;;;;;5101377;28;20055;-76
2023/06/29 09:42:40;;;;;;;8.30;7.50;;;;;;;;;;5100735;28;20059;-77
2023/06/29 09:45:14;;;;;;;8.40;7.60;;;;;;;;;;5100634;27;21053;-76
2023/06/29 09:47:41;;;;;;;7.75;7.15;;;;;;;;;;5096067;28;20346;-75
2023/06/29 09:50:26;;;;;;;6.95;6.38;;;;;;;;;;5090523;27;20089;-76
2023/06/29 09:52:52;;;;;;;6.25;5.75;;;;;;;;;;5089458;28;20407;-75
2023/06/29 09:55:18;;;;;;;6.88;6.35;;;;;;;;;;5087859;28;20047;-75
2023/06/29 09:57:45;;;;;;;5.75;5.35;;;;;;;;;;5087464;28;20114;-76
2023/06/29 10:00:12;;;;;;;5.80;5.40;;;;;;;;;;5084457;28;20043;-76
2023/06/29 10:02:38;;;;;;;5.63;5.20;;;;;;;;;;5088794;28;20032;-76
2023/06/29 10:05:03;;;;;;;6.07;5.20;;;;;;;;;;5090893;28;20034;-75
2023/06/29 10:07:29;;;;;;;6.28;5.78;;;;;;;;;;5095871;28;20040;-75
2023/06/29 10:09:55;;;;;;;5.60;5.10;;;;;;;;;;5100859;28;20027;-74
2023/06/29 10:12:22;;;;;;;5.20;4.80;;;;;;;;;;5100775;28;20318;-74
2023/06/29 10:14:48;;;;;;;6.07;5.47;;;;;;;;;;5100533;28;20352;-76
2023/06/29 10:17:24;;;;;;;6.15;5.57;;;;;;;;;;5090295;28;20450;-75
2023/06/29 10:19:50;;;;;;;6.60;5.50;;;;;;;;;;5087821;28;20350;-74
2023/06/29 10:22:16;;;;;;;4.50;4.10;;;;;;;;;;5069629;28;20415;-74
2023/06/29 10:24:42;;;;;;;6.70;5.50;;;;;;;;;;5089034;28;20032;-74
2023/06/29 10:27:08;;;;;;;5.07;4.68;;;;;;;;;;5088794;28;20095;-74
2023/06/29 10:29:44;;;;;;;5.25;4.50;;;;;;;;;;5086759;28;20034;-75
2023/06/29 10:32:09;;;;;;;4.85;4.45;;;;;;;;;;5087201;28;20027;-75
2023/06/29 10:34:37;;;;;;;4.05;3.75;;;;;;;;;;5088401;28;20024;-74
2023/06/29 10:37:03;;;;;;;4.35;4.00;;;;;;;;;;5088612;28;20023;-76
2023/06/29 10:39:37;;;;;;;6.20;4.30;;;;;;;;;;5088234;28;20042;-75
2023/06/29 10:42:08;;;;;;;4.65;4.28;;;;;;;;;;5087449;28;20027;-73
2023/06/29 10:44:34;;;;;;;4.70;4.40;;;;;;;;;;5088458;28;20027;-74
2023/06/29 10:46:59;;;;;;;4.63;4.25;;;;;;;;;;5087557;28;20023;-74
2023/06/29 10:49:26;;;;;;;7.25;4.40;;;;;;;;;;5088457;28;20070;-76
2023/06/29 10:51:52;;;;;;;6.25;4.45;;;;;;;;;;5088027;28;20038;-75
2023/06/29 10:54:27;;;;;;;4.97;4.57;;;;;;;;;;5086512;28;20319;-75
2023/06/29 10:57:11;;;;;;;4.40;4.00;;;;;;;;;;5087134;28;20398;-74
2023/06/29 10:59:38;;;;;;;6.20;4.03;;;;;;;;;;5087047;28;20110;-74
2023/06/29 11:02:04;;;;;;;4.10;3.78;;;;;;;;;;5087883;28;20030;-74
2023/06/29 11:04:29;;;;;;;4.00;3.58;;;;;;;;;;5095158;28;20023;-74
2023/06/29 11:06:55;;;;;;;3.47;3.17;;;;;;;;;;5098442;28;20127;-74
2023/06/29 11:09:20;;;;;;;3.53;3.22;;;;;;;;;;5098276;28;20127;-73
2023/06/29 11:11:47;;;;;;;3.30;3.10;;;;;;;;;;5097887;28;20023;-74
2023/06/29 11:14:13;;;;;;;4.03;3.63;;;;;;;;;;5099138;28;20024;-74
2023/06/29 11:16:39;;;;;;;3.83;3.50;;;;;;;;;;5098746;28;20050;-74
2023/06/29 11:19:04;;;;;;;3.97;3.67;;;;;;;;;;5099092;28;20158;-75
2023/06/29 11:21:30;;;;;;;4.20;3.13;;;;;;;;;;5098201;28;20099;-75
2023/06/29 11:23:55;;;;;;;5.93;3.30;;;;;;;;;;5098229;28;20028;-74
2023/06/29 11:26:21;;;;;;;3.88;3.55;;;;;;;;;;5099853;28;20126;-76
2023/06/29 11:28:50;;;;;;;3.65;3.35;;;;;;;;;;5098728;28;20550;-76
2023/06/29 11:31:16;;;;;;;4.38;3.38;;;;;;;;;;5099980;28;21002;-75
2023/06/29 11:33:48;;;;;;;4.43;2.85;;;;;;;;;;5099839;28;20588;-74
2023/06/29 11:36:14;;;;;;;3.40;3.10;;;;;;;;;;5098720;28;20030;-73
2023/06/29 11:38:39;;;;;;;3.35;3.00;;;;;;;;;;5087753;28;20016;-74
2023/06/29 11:41:05;;;;;;;2.92;2.72;;;;;;;;;;5092322;28;20098;-74
2023/06/29 11:43:30;;;;;;;2.88;2.67;;;;;;;;;;5098178;28;20035;-75
2023/06/29 11:45:57;;;;;;;2.70;2.50;;;;;;;;;;5096104;28;20106;-75
2023/06/29 11:48:22;;;;;;;3.40;2.95;;;;;;;;;;5087134;28;20024;-74
2023/06/29 11:50:48;;;;;;;3.83;2.67;;;;;;;;;;5088337;28;20042;-73
2023/06/29 11:53:14;;;;;;;3.00;2.78;;;;;;;;;;5087935;28;20023;-74
2023/06/29 11:55:47;;;;;;;2.90;2.70;;;;;;;;;;5097693;28;20114;-74
2023/06/29 11:58:13;;;;;;;3.00;2.80;;;;;;;;;;5098517;28;20051;-75
2023/06/29 12:00:38;;;;;;;3.33;3.03;;;;;;;;;;5099189;28;20074;-74
2023/06/29 12:03:07;;;;;;;3.13;2.85;;;;;;;;;;5090445;28;20024;-74
2023/06/29 12:05:33;;;;;;;3.92;3.00;;;;;;;;;;5095397;28;20054;-75
2023/06/29 12:08:04;;;;;;;3.75;2.80;;;;;;;;;;5097185;28;20418;-74
2023/06/29 12:10:30;;;;;;;2.88;2.38;;;;;;;;;;5098199;28;20454;-74
2023/06/29 12:12:56;;;;;;;2.55;2.35;;;;;;;;;;5096834;28;20073;-74
2023/06/29 12:15:22;;;;;;;2.80;2.60;;;;;;;;;;5097697;28;20039;-74
2023/06/29 12:17:50;;;;;;;2.70;2.50;;;;;;;;;;5096100;28;20036;-72
2023/06/29 12:20:16;;;;;;;2.30;2.20;;;;;;;;;;5101060;27;20031;-74
2023/06/29 12:22:43;;;;;;;2.40;2.20;;;;;;;;;;5098326;28;20362;-74
2023/06/29 12:25:09;;;;;;;2.53;2.30;;;;;;;;;;5096437;27;20031;-74
2023/06/29 12:27:34;;;;;;;3.33;2.40;;;;;;;;;;5101335;28;20023;-74
2023/06/29 12:30:00;;;;;;;2.75;2.45;;;;;;;;;;5097684;28;20023;-75
2023/06/29 12:32:25;;;;;;;2.70;2.50;;;;;;;;;;5090359;28;20025;-74
2023/06/29 12:34:50;;;;;;;3.35;2.47;;;;;;;;;;5090619;28;20023;-75
2023/06/29 12:37:16;;;;;;;3.08;2.22;;;;;;;;;;5090252;28;20039;-77
2023/06/29 12:39:41;;;;;;;2.55;1.92;;;;;;;;;;5088381;28;20028;-75
2023/06/29 12:42:06;;;;;;;2.10;1.90;;;;;;;;;;5089307;28;20030;-74
2023/06/29 12:44:32;;;;;;;2.70;2.50;;;;;;;;;;5089225;27;20027;-74
2023/06/29 12:46:58;;;;;;;2.60;2.40;;;;;;;;;;5089426;28;20031;-74
2023/06/29 12:49:23;;;;;;;2.45;2.25;;;;;;;;;;5094453;28;20797;-75
2023/06/29 12:51:48;;;;;;;2.00;1.90;;;;;;;;;;5099919;27;20507;-74
2023/06/29 12:54:14;;;;;;;3.75;2.50;;;;;;;;;;5100315;28;20571;-73
2023/06/29 12:56:39;;;;;;;4.18;2.40;;;;;;;;;;5099979;28;20493;-75
2023/06/29 12:59:04;;;;;;;2.63;2.17;;;;;;;;;;5097070;27;20082;-76
2023/06/29 13:01:30;;;;;;;3.05;2.28;;;;;;;;;;5090413;27;20027;-74
2023/06/29 13:03:55;;;;;;;2.67;2.35;;;;;;;;;;5092445;28;20061;-75
2023/06/29 13:06:20;;;;;;;4.50;2.28;;;;;;;;;;5088413;28;20043;-74
2023/06/29 13:08:46;;;;;;;2.95;2.63;;;;;;;;;;5089717;28;20033;-75
2023/06/29 13:11:12;;;;;;;2.25;2.15;;;;;;;;;;5089267;28;20437;-74
2023/06/29 13:13:37;;;;;;;2.33;2.13;;;;;;;;;;5089944;28;20058;-75
2023/06/29 13:16:02;;;;;;;4.82;2.22;;;;;;;;;;5089634;27;20099;-74
2023/06/29 13:18:28;;;;;;;4.18;2.00;;;;;;;;;;5089298;28;20031;-74
2023/06/29 13:20:53;;;;;;;2.08;1.95;;;;;;;;;;5089748;28;20113;-75
2023/06/29 13:23:18;;;;;;;3.90;3.60;;;;;;;;;;5089540;28;20156;-74
2023/06/29 13:25:44;;;;;;;4.07;3.00;;;;;;;;;;5089007;28;20035;-75
2023/06/29 13:28:10;;;;;;;2.67;2.22;;;;;;;;;;5093796;28;20035;-75
2023/06/29 13:30:35;;;;;;;2.83;2.40;;;;;;;;;;5099454;28;20027;-75
2023/06/29 13:33:01;;;;;;;2.40;1.92;;;;;;;;;;5093919;28;20012;-74
2023/06/29 13:35:26;;;;;;;1.95;1.85;;;;;;;;;;5088306;28;20023;-75
2023/06/29 13:37:51;;;;;;;3.25;2.05;;;;;;;;;;5087357;28;20047;-74
2023/06/29 13:40:17;;;;;;;2.88;1.98;;;;;;;;;;5088939;28;20028;-75
2023/06/29 13:42:42;;;;;;;2.13;1.90;;;;;;;;;;5088733;28;20050;-75
2023/06/29 13:45:08;;;;;;;2.85;2.30;;;;;;;;;;5089472;28;20087;-74
2023/06/29 13:47:33;;;;;;;2.40;1.85;;;;;;;;;;5089133;28;20027;-74
2023/06/29 13:49:59;;;;;;;3.28;1.88;;;;;;;;;;5086106;27;20144;-76
2023/06/29 13:52:24;;;;;;;2.60;2.17;;;;;;;;;;5095519;28;20027;-77
2023/06/29 13:54:49;;;;;;;2.10;2.00;;;;;;;;;;5093604;28;20023;-76
2023/06/29 13:57:15;;;;;;;2.28;2.05;;;;;;;;;;5097305;28;20024;-78
2023/06/29 13:59:40;;;;;;;3.58;1.98;;;;;;;;;;5090597;28;20571;-78
2023/06/29 14:02:06;;;;;;;3.13;1.98;;;;;;;;;;5097423;28;20020;-78
2023/06/29 14:04:31;;;;;;;4.28;2.25;;;;;;;;;;5100851;27;20019;-77
2023/06/29 14:06:56;;;;;;;4.40;2.30;;;;;;;;;;5100479;28;20055;-77
2023/06/29 14:09:22;;;;;;;2.70;2.35;;;;;;;;;;5099196;28;20034;-75
2023/06/29 14:11:47;;;;;;;2.40;2.20;;;;;;;;;;5095492;28;20015;-76
2023/06/29 14:14:13;;;;;;;2.55;2.22;;;;;;;;;;5089150;28;20080;-77
2023/06/29 14:16:38;;;;;;;2.72;2.50;;;;;;;;;;5091688;28;20470;-78
2023/06/29 14:19:03;;;;;;;4.10;2.33;;;;;;;;;;5092599;28;20073;-76